Time;durP1;ratioP1;P1;durP2;ratioP2;P2;SDS_P1;SDS_P2;PMS_P1;PMS_P2;Temp;Humidity;BMP_temperature;BMP_pressure;BME280_temperature;BME280_humidity;BME280_pressure;Samples;Min_cycle;Max_cycle;Signal;HPM_P1;HPM_P2
2021/04/08 00:00:12;;;;;;;13.53;10.30;;;;;;;1.16;92.88;95646.69;4972437;28;20290;-61
2021/04/08 00:02:42;;;;;;;15.27;9.97;;;;;;;1.18;92.65;95654.16;4972482;28;20196;-62
2021/04/08 00:05:11;;;;;;;13.13;8.57;;;;;;;1.30;91.37;95653.06;4972498;28;20531;-60
2021/04/08 00:07:38;;;;;;;18.03;9.73;;;;;;;1.25;91.00;95645.31;4972827;28;20204;-60
2021/04/08 00:10:07;;;;;;;14.90;9.60;;;;;;;1.34;90.14;95642.38;4972262;28;20618;-60
2021/04/08 00:12:34;;;;;;;15.10;10.03;;;;;;;1.30;90.19;95642.03;4972257;28;20287;-59
2021/04/08 00:15:01;;;;;;;11.17;8.23;;;;;;;1.21;90.01;95638.31;4972282;28;20268;-60
2021/04/08 00:17:28;;;;;;;11.93;8.50;;;;;;;1.24;89.16;95636.09;4972235;28;20664;-60
2021/04/08 00:19:56;;;;;;;11.87;8.20;;;;;;;1.10;89.99;95632.25;4972212;28;20207;-60
2021/04/08 00:22:23;;;;;;;12.10;8.10;;;;;;;0.98;90.32;95628.22;4971994;28;20246;-60
2021/04/08 00:24:50;;;;;;;10.27;7.67;;;;;;;0.94;89.46;95630.44;4972309;28;20701;-60
2021/04/08 00:27:17;;;;;;;10.60;7.83;;;;;;;0.93;87.76;95633.22;4972255;28;20269;-59
2021/04/08 00:29:43;;;;;;;13.40;8.47;;;;;;;0.71;88.64;95649.19;4972008;28;20286;-60
2021/04/08 00:32:10;;;;;;;13.23;8.63;;;;;;;0.78;89.28;95644.75;4972178;28;20204;-59
2021/04/08 00:34:37;;;;;;;13.83;8.43;;;;;;;0.58;89.74;95644.34;4971825;28;20311;-60
2021/04/08 00:37:06;;;;;;;11.73;8.67;;;;;;;0.64;89.74;95638.34;4971874;28;20209;-62
2021/04/08 00:39:32;;;;;;;12.57;8.47;;;;;;;0.52;90.54;95644.47;4972104;28;20211;-61
2021/04/08 00:41:59;;;;;;;12.30;8.90;;;;;;;0.44;91.49;95635.41;4972055;28;20629;-60
2021/04/08 00:44:26;;;;;;;11.87;8.27;;;;;;;0.38;91.94;95643.97;4971574;28;20210;-60
2021/04/08 00:46:53;;;;;;;12.40;8.67;;;;;;;0.40;92.06;95634.28;4971468;28;20652;-59
2021/04/08 00:49:20;;;;;;;11.17;8.30;;;;;;;0.37;91.58;95632.19;4971823;28;20307;-60
2021/04/08 00:51:47;;;;;;;11.10;8.83;;;;;;;0.32;92.23;95637.97;4971862;28;20206;-59
2021/04/08 00:54:17;;;;;;;10.63;8.50;;;;;;;0.28;92.27;95628.41;4971532;28;20289;-58
2021/04/08 00:56:44;;;;;;;12.43;8.60;;;;;;;0.26;91.49;95636.31;4971672;28;20195;-62
2021/04/08 00:59:13;;;;;;;17.03;9.17;;;;;;;0.16;92.10;95637.88;4971879;28;20663;-60
2021/04/08 01:01:40;;;;;;;13.37;9.37;;;;;;;0.02;92.36;95631.44;4971526;28;20267;-59
2021/04/08 01:04:07;;;;;;;14.10;9.43;;;;;;;-0.03;92.45;95632.13;4971725;28;20203;-60
2021/04/08 01:06:35;;;;;;;13.27;9.10;;;;;;;0.10;92.37;95636.22;4971385;28;20192;-60
2021/04/08 01:09:03;;;;;;;16.90;10.53;;;;;;;0.09;92.30;95629.56;4971580;28;20284;-61
2021/04/08 01:11:31;;;;;;;17.63;10.67;;;;;;;0.06;92.45;95630.00;4971382;28;20196;-60
2021/04/08 01:13:59;;;;;;;15.83;10.50;;;;;;;0.13;92.12;95626.34;4971268;28;20310;-61
2021/04/08 01:16:35;;;;;;;14.93;10.47;;;;;;;-0.11;92.50;95624.81;4971539;28;20208;-60
2021/04/08 01:19:17;;;;;;;14.97;11.03;;;;;;;-0.19;93.63;95627.69;4971374;28;20782;-60
2021/04/08 01:21:49;;;;;;;13.97;9.80;;;;;;;-0.26;94.21;95621.91;4971250;28;20692;-60
2021/04/08 01:24:56;;;;;;;14.77;10.43;;;;;;;-0.32;94.67;95633.78;4971051;28;20323;-60
2021/04/08 01:28:07;;;;;;;14.60;9.23;;;;;;;-0.27;94.55;95628.00;4971183;28;20202;-59
2021/04/08 01:30:46;;;;;;;19.17;10.30;;;;;;;-0.28;95.07;95646.88;4971274;28;20281;-59
2021/04/08 01:33:26;;;;;;;13.73;10.07;;;;;;;-0.32;94.32;95638.91;4971549;28;20204;-62
2021/04/08 01:35:54;;;;;;;19.80;10.97;;;;;;;-0.25;94.42;95649.75;4971293;28;20239;-58
2021/04/08 01:38:26;;;;;;;14.47;10.03;;;;;;;-0.18;93.76;95652.22;4971174;28;20199;-60
2021/04/08 01:40:54;;;;;;;14.40;9.13;;;;;;;-0.23;93.17;95657.22;4971305;28;20239;-61
2021/04/08 01:43:25;;;;;;;16.87;10.73;;;;;;;-0.27;93.35;95651.78;4971267;28;20645;-62
2021/04/08 01:45:55;;;;;;;16.63;10.50;;;;;;;-0.29;93.16;95655.53;4971170;28;20231;-61
2021/04/08 01:48:22;;;;;;;13.80;9.80;;;;;;;-0.25;92.71;95659.22;4971108;28;20291;-59
2021/04/08 01:50:55;;;;;;;17.77;9.87;;;;;;;-0.26;92.43;95658.44;4971034;28;20219;-59
2021/04/08 01:53:23;;;;;;;14.30;9.90;;;;;;;-0.29;92.76;95642.78;4971234;28;20723;-60
2021/04/08 01:55:54;;;;;;;14.37;9.83;;;;;;;-0.33;92.84;95655.19;4970943;28;20271;-60
2021/04/08 01:58:22;;;;;;;14.13;9.70;;;;;;;-0.46;94.15;95663.06;4971493;28;20283;-59
2021/04/08 02:00:51;;;;;;;13.30;9.73;;;;;;;-0.39;94.16;95663.75;4975046;28;20227;-60
2021/04/08 02:03:19;;;;;;;14.20;9.23;;;;;;;-0.50;95.37;95651.75;4974676;28;20242;-59
2021/04/08 02:05:47;;;;;;;13.33;10.10;;;;;;;-0.42;95.57;95651.44;4974823;28;20238;-59
2021/04/08 02:08:15;;;;;;;15.70;9.20;;;;;;;-0.44;95.22;95668.72;4975058;28;20227;-58
2021/04/08 02:10:43;;;;;;;15.70;9.37;;;;;;;-0.25;94.18;95662.53;4974580;28;20232;-60
2021/04/08 02:13:13;;;;;;;14.37;9.60;;;;;;;-0.27;94.12;95667.09;4974541;28;20291;-58
2021/04/08 02:15:42;;;;;;;13.67;8.50;;;;;;;-0.17;94.16;95672.44;4974411;28;20319;-59
2021/04/08 02:18:14;;;;;;;13.83;9.70;;;;;;;-0.16;93.20;95684.22;4974499;28;20197;-59
2021/04/08 02:20:44;;;;;;;12.60;9.10;;;;;;;-0.15;93.07;95685.75;4974696;28;20587;-59
2021/04/08 02:23:17;;;;;;;12.50;8.90;;;;;;;-0.02;93.05;95682.22;4974231;28;20231;-59
2021/04/08 02:25:45;;;;;;;13.87;9.87;;;;;;;-0.04;93.68;95687.53;4974411;28;20278;-59
2021/04/08 02:28:12;;;;;;;13.67;9.43;;;;;;;0.04;93.78;95690.75;4974277;28;20228;-60
2021/04/08 02:30:47;;;;;;;13.90;8.70;;;;;;;0.17;93.06;95687.97;4974739;28;20231;-60
2021/04/08 02:33:19;;;;;;;14.80;9.77;;;;;;;0.11;92.38;95694.75;4974169;28;20203;-59
2021/04/08 02:35:47;;;;;;;46.90;23.33;;;;;;;0.30;92.45;95680.09;4974378;28;20236;-61
2021/04/08 02:38:15;;;;;;;16.27;11.03;;;;;;;0.06;92.78;95679.31;4974133;28;20282;-59
2021/04/08 02:40:42;;;;;;;14.77;9.37;;;;;;;0.16;92.59;95683.84;4974246;28;20681;-59
2021/04/08 02:43:10;;;;;;;12.37;8.80;;;;;;;0.06;92.68;95691.28;4974119;28;20220;-58
2021/04/08 02:45:37;;;;;;;14.30;8.87;;;;;;;-0.03;92.51;95690.88;4973946;28;20564;-59
2021/04/08 02:48:07;;;;;;;12.60;9.07;;;;;;;-0.07;92.86;95693.09;4973893;28;20243;-61
2021/04/08 02:50:35;;;;;;;15.97;9.63;;;;;;;-0.16;93.41;95685.97;4974286;28;20254;-59
2021/04/08 02:53:07;;;;;;;14.13;9.50;;;;;;;-0.06;93.25;95681.88;4973860;28;20196;-60
2021/04/08 02:55:40;;;;;;;15.50;9.60;;;;;;;0.00;92.90;95680.22;4973742;28;20702;-58
2021/04/08 02:58:08;;;;;;;17.33;9.67;;;;;;;-0.03;92.86;95689.09;4974004;28;20196;-58
2021/04/08 03:00:41;;;;;;;14.37;9.17;;;;;;;-0.03;93.34;95694.19;4973783;28;20208;-60
2021/04/08 03:03:12;;;;;;;15.20;9.67;;;;;;;-0.05;93.54;95701.28;4973842;28;20266;-59
2021/04/08 03:05:42;;;;;;;15.60;10.43;;;;;;;0.06;93.74;95704.06;4973841;28;20202;-58
2021/04/08 03:08:14;;;;;;;16.63;10.33;;;;;;;-0.07;93.76;95695.66;4973611;28;20204;-59
2021/04/08 03:10:43;;;;;;;17.80;9.93;;;;;;;0.08;94.03;95705.41;4974059;28;20214;-62
2021/04/08 03:13:12;;;;;;;14.47;8.47;;;;;;;-0.02;93.49;95718.75;4973880;28;20204;-62
2021/04/08 03:15:41;;;;;;;16.27;10.57;;;;;;;-0.07;94.10;95717.84;4973318;28;20238;-59
2021/04/08 03:18:11;;;;;;;17.30;10.87;;;;;;;-0.01;94.39;95722.84;4973679;28;20233;-59
2021/04/08 03:20:41;;;;;;;16.63;10.57;;;;;;;-0.07;94.48;95721.19;4973329;28;20285;-59
2021/04/08 03:23:12;;;;;;;19.60;11.00;;;;;;;0.00;94.62;95721.09;4973000;28;20293;-59
2021/04/08 03:25:41;;;;;;;14.53;9.30;;;;;;;-0.01;93.77;95730.53;4973429;28;20712;-58
2021/04/08 03:28:12;;;;;;;14.00;9.00;;;;;;;-0.01;93.49;95743.28;4973322;28;20290;-62
2021/04/08 03:30:41;;;;;;;13.30;9.67;;;;;;;-0.09;93.30;95751.25;4973208;28;20627;-58
2021/04/08 03:33:08;;;;;;;16.30;9.73;;;;;;;-0.06;93.57;95757.72;4973212;28;20200;-60
2021/04/08 03:35:37;;;;;;;13.47;9.50;;;;;;;-0.05;93.92;95752.38;4972942;28;20280;-62
2021/04/08 03:38:05;;;;;;;15.57;9.30;;;;;;;0.06;93.54;95762.81;4973294;28;20200;-60
2021/04/08 03:40:34;;;;;;;11.80;9.23;;;;;;;0.14;93.51;95770.97;4973219;28;20199;-59
2021/04/08 03:43:02;;;;;;;14.40;9.00;;;;;;;0.08;93.21;95776.94;4972851;28;20192;-59
2021/04/08 03:45:29;;;;;;;16.63;9.00;;;;;;;0.10;93.58;95780.03;4972672;28;20579;-60
2021/04/08 03:48:01;;;;;;;11.17;8.23;;;;;;;0.27;93.17;95786.06;4972812;28;20203;-59
2021/04/08 03:50:29;;;;;;;12.60;7.80;;;;;;;0.23;93.13;95789.28;4972999;28;20594;-59
2021/04/08 03:52:57;;;;;;;10.90;7.97;;;;;;;0.22;93.33;95792.84;4972950;28;20278;-60
2021/04/08 03:55:27;;;;;;;12.20;8.87;;;;;;;0.31;93.83;95792.28;4972677;28;20318;-60
2021/04/08 03:57:57;;;;;;;13.37;8.80;;;;;;;0.34;92.91;95796.19;4972606;28;20807;-59
2021/04/08 04:00:25;;;;;;;14.13;8.87;;;;;;;0.23;93.62;95804.63;4972520;28;20202;-60
2021/04/08 04:02:53;;;;;;;12.87;9.13;;;;;;;0.29;93.63;95803.75;4972698;28;20199;-58
2021/04/08 04:05:23;;;;;;;14.67;8.67;;;;;;;0.38;92.69;95807.53;4972662;28;20645;-58
2021/04/08 04:07:51;;;;;;;15.20;9.80;;;;;;;0.39;92.17;95811.66;4972381;28;20199;-59
2021/04/08 04:10:20;;;;;;;16.27;10.17;;;;;;;0.38;92.84;95817.75;4972331;28;20199;-59
2021/04/08 04:12:48;;;;;;;13.70;9.87;;;;;;;0.43;92.96;95820.44;4972349;28;20196;-58
2021/04/08 04:15:17;;;;;;;15.20;9.33;;;;;;;0.42;93.32;95823.97;4972133;28;20707;-60
2021/04/08 04:17:44;;;;;;;14.60;10.13;;;;;;;0.42;94.00;95826.53;4972426;28;20251;-57
2021/04/08 04:20:13;;;;;;;17.40;9.80;;;;;;;0.47;93.88;95821.53;4972265;28;20348;-57
2021/04/08 04:22:41;;;;;;;15.20;9.47;;;;;;;0.44;93.51;95827.09;4971323;28;20290;-60
2021/04/08 04:25:09;;;;;;;14.20;9.73;;;;;;;0.58;93.58;95825.88;4972038;28;20196;-59
2021/04/08 04:27:36;;;;;;;14.83;9.67;;;;;;;0.50;93.43;95822.88;4972108;28;20283;-60
2021/04/08 04:30:05;;;;;;;14.63;9.47;;;;;;;0.49;93.00;95834.88;4972228;28;20199;-59
2021/04/08 04:32:32;;;;;;;16.13;9.77;;;;;;;0.36;94.07;95840.97;4972118;28;20211;-58
2021/04/08 04:35:00;;;;;;;14.27;9.27;;;;;;;0.53;93.35;95851.34;4971908;28;20235;-58
2021/04/08 04:37:26;;;;;;;16.97;10.10;;;;;;;0.54;92.82;95847.78;4971883;28;20303;-59
2021/04/08 04:39:53;;;;;;;13.13;9.53;;;;;;;0.52;92.52;95849.78;4971661;28;20302;-58
2021/04/08 04:42:20;;;;;;;15.80;10.00;;;;;;;0.70;92.42;95852.22;4971995;28;20228;-60
2021/04/08 04:44:47;;;;;;;17.03;10.00;;;;;;;0.74;92.23;95853.34;4971694;28;20667;-61
2021/04/08 04:47:14;;;;;;;18.27;10.80;;;;;;;0.84;91.17;95858.69;4971585;28;20199;-59
2021/04/08 04:49:48;;;;;;;18.87;11.33;;;;;;;0.98;91.32;95859.22;4971710;28;20307;-60
2021/04/08 04:52:15;;;;;;;26.30;12.93;;;;;;;1.06;90.84;95856.31;4971887;28;20608;-61
2021/04/08 04:54:42;;;;;;;24.77;12.17;;;;;;;1.06;90.79;95865.78;4971377;28;20329;-59
2021/04/08 04:57:09;;;;;;;23.57;11.40;;;;;;;1.05;90.95;95864.22;4971420;28;20608;-59
2021/04/08 04:59:36;;;;;;;19.50;9.87;;;;;;;1.03;89.36;95872.13;4971703;28;20214;-58
2021/04/08 05:02:03;;;;;;;18.73;9.70;;;;;;;1.09;89.53;95880.69;4971808;28;20663;-60
2021/04/08 05:04:30;;;;;;;16.13;8.93;;;;;;;1.03;89.65;95877.25;4971420;28;20242;-61
2021/04/08 05:06:58;;;;;;;17.93;10.10;;;;;;;0.92;90.09;95874.69;4971254;28;20291;-60
2021/04/08 05:09:25;;;;;;;15.87;9.53;;;;;;;0.96;90.18;95881.69;4971563;28;20238;-59
2021/04/08 05:11:52;;;;;;;12.67;8.90;;;;;;;0.99;90.27;95880.47;4971499;28;20680;-60
2021/04/08 05:14:19;;;;;;;12.80;8.47;;;;;;;1.07;90.29;95885.25;4971221;28;21382;-62
2021/04/08 05:16:46;;;;;;;14.60;8.10;;;;;;;1.13;89.05;95886.91;4971252;28;20239;-59
2021/04/08 05:19:13;;;;;;;13.17;7.73;;;;;;;1.22;89.23;95893.25;4971313;28;20231;-60
2021/04/08 05:21:40;;;;;;;11.97;8.30;;;;;;;1.27;88.72;95885.69;4971185;28;20196;-59
2021/04/08 05:24:09;;;;;;;11.63;7.90;;;;;;;1.30;88.48;95892.91;4970984;28;20238;-60
2021/04/08 05:26:36;;;;;;;13.23;8.50;;;;;;;1.31;88.88;95889.34;4971123;28;20294;-59
2021/04/08 05:29:03;;;;;;;11.97;8.77;;;;;;;1.40;89.08;95900.78;4971509;28;20203;-61
2021/04/08 05:31:30;;;;;;;14.67;10.00;;;;;;;1.58;88.13;95895.53;4971052;28;20203;-60
2021/04/08 05:33:57;;;;;;;11.47;8.03;;;;;;;1.62;87.71;95903.53;4972348;28;20266;-60
2021/04/08 05:36:24;;;;;;;12.27;8.00;;;;;;;1.64;87.62;95904.84;4975233;28;20557;-60
2021/04/08 05:38:51;;;;;;;13.80;8.97;;;;;;;1.65;85.41;95911.53;4974807;28;20286;-60
2021/04/08 05:41:19;;;;;;;10.77;7.93;;;;;;;1.69;85.63;95904.94;4974902;28;20223;-60
2021/04/08 05:43:46;;;;;;;12.97;7.30;;;;;;;1.74;84.99;95904.28;4974892;28;20234;-61
2021/04/08 05:46:13;;;;;;;13.07;7.87;;;;;;;1.77;85.69;95905.59;4974720;28;20205;-59
2021/04/08 05:48:40;;;;;;;12.83;7.87;;;;;;;1.98;85.73;95912.69;4974653;28;20203;-60
2021/04/08 05:51:07;;;;;;;10.67;7.60;;;;;;;2.08;85.11;95913.66;4974799;28;20257;-60
2021/04/08 05:53:34;;;;;;;11.80;8.17;;;;;;;2.09;84.98;95911.88;4974878;28;20256;-60
2021/04/08 05:56:01;;;;;;;12.43;7.90;;;;;;;2.34;84.82;95914.09;4974672;28;20713;-59
2021/04/08 05:58:29;;;;;;;14.37;8.10;;;;;;;2.17;82.86;95914.03;4974635;28;20241;-60
2021/04/08 06:00:56;;;;;;;13.67;8.87;;;;;;;2.14;81.40;95929.91;4974690;28;20206;-60
2021/04/08 06:03:23;;;;;;;12.73;8.40;;;;;;;2.17;83.06;95929.44;4974662;28;20657;-60
2021/04/08 06:05:50;;;;;;;12.80;7.97;;;;;;;2.29;81.92;95932.69;4974506;28;20574;-61
2021/04/08 06:08:17;;;;;;;12.97;7.57;;;;;;;2.25;82.63;95929.03;4974340;28;20225;-60
2021/04/08 06:10:44;;;;;;;11.03;7.83;;;;;;;2.24;83.35;95932.63;4974481;28;20696;-60
2021/04/08 06:13:11;;;;;;;13.57;7.87;;;;;;;2.22;81.63;95937.22;4974326;28;20201;-60
2021/04/08 06:15:39;;;;;;;11.20;8.07;;;;;;;2.24;80.78;95940.34;4974170;28;20285;-60
2021/04/08 06:18:06;;;;;;;12.70;7.90;;;;;;;2.23;80.37;95941.34;4974428;28;20280;-60
2021/04/08 06:20:33;;;;;;;11.47;7.03;;;;;;;2.46;80.52;95937.88;4974470;28;20225;-61
2021/04/08 06:23:00;;;;;;;10.57;7.43;;;;;;;2.62;80.05;95938.91;4974012;28;20240;-59
2021/04/08 06:25:27;;;;;;;9.97;7.63;;;;;;;2.43;80.78;95944.25;4974255;28;20202;-61
2021/04/08 06:27:54;;;;;;;11.93;7.60;;;;;;;2.37;81.44;95949.53;4974183;28;20213;-60
2021/04/08 06:30:22;;;;;;;11.97;7.47;;;;;;;2.42;79.09;95944.47;4974044;28;20192;-59
2021/04/08 06:32:52;;;;;;;12.60;7.70;;;;;;;2.49;80.77;95945.88;4973926;28;20195;-59
2021/04/08 06:35:19;;;;;;;17.23;8.10;;;;;;;2.50;79.99;95952.56;4974155;28;20233;-59
2021/04/08 06:37:46;;;;;;;10.80;8.00;;;;;;;2.60;78.79;95957.88;4973954;28;20214;-59
2021/04/08 06:40:14;;;;;;;15.33;8.97;;;;;;;2.62;80.25;95962.00;4973714;28;20237;-59
2021/04/08 06:42:42;;;;;;;11.57;7.77;;;;;;;2.69;80.83;95958.25;4973916;28;20218;-60
2021/04/08 06:45:11;;;;;;;13.93;7.80;;;;;;;2.96;81.12;95959.22;4973494;28;20291;-61
2021/04/08 06:47:54;;;;;;;9.20;6.77;;;;;;;3.07;78.13;95970.44;4973847;28;20276;-59
2021/04/08 06:50:25;;;;;;;9.23;7.17;;;;;;;3.16;78.64;95969.03;4973767;28;20220;-60
2021/04/08 06:52:53;;;;;;;11.47;6.83;;;;;;;3.26;75.05;95974.31;4974166;28;20268;-60
2021/04/08 06:55:21;;;;;;;11.27;7.00;;;;;;;3.31;76.47;95971.03;4973504;28;20250;-63
2021/04/08 06:57:49;;;;;;;10.60;7.37;;;;;;;3.48;76.60;95971.78;4973629;28;20253;-63
2021/04/08 07:00:17;;;;;;;10.30;7.97;;;;;;;3.66;76.85;95978.44;4973749;28;20202;-60
2021/04/08 07:02:44;;;;;;;9.93;7.13;;;;;;;3.75;75.53;95987.28;4973738;28;20199;-60
2021/04/08 07:05:12;;;;;;;11.23;6.53;;;;;;;3.75;73.82;95988.06;4973390;28;20211;-60
2021/04/08 07:07:40;;;;;;;11.00;7.03;;;;;;;3.81;74.63;95986.34;4973456;28;20213;-61
2021/04/08 07:10:08;;;;;;;13.50;7.07;;;;;;;4.01;74.23;95990.97;4973306;28;20234;-61
2021/04/08 07:12:35;;;;;;;11.27;6.77;;;;;;;4.28;74.88;95989.22;4973478;28;20206;-62
2021/04/08 07:15:03;;;;;;;11.00;7.50;;;;;;;4.31;74.19;95999.81;4973351;28;20230;-61
2021/04/08 07:17:30;;;;;;;10.90;7.07;;;;;;;4.05;73.56;95997.97;4973296;28;20254;-60
2021/04/08 07:19:57;;;;;;;12.93;7.17;;;;;;;4.31;73.25;95994.66;4973241;28;20211;-62
2021/04/08 07:22:25;;;;;;;12.10;7.63;;;;;;;4.62;72.90;95992.41;4972694;28;20641;-64
2021/04/08 07:24:54;;;;;;;9.30;5.73;;;;;;;4.70;69.66;95999.69;4973406;28;20196;-61
2021/04/08 07:27:23;;;;;;;9.37;6.53;;;;;;;4.82;71.89;95992.59;4972954;28;20200;-63
2021/04/08 07:29:58;;;;;;;10.30;6.70;;;;;;;4.75;69.92;95999.72;4972931;28;20660;-61
2021/04/08 07:32:29;;;;;;;11.57;6.67;;;;;;;5.23;71.09;95998.06;4973066;28;20219;-61
2021/04/08 07:34:59;;;;;;;8.07;6.17;;;;;;;5.62;69.04;96001.94;4972927;28;20242;-61
2021/04/08 07:37:28;;;;;;;9.70;6.27;;;;;;;5.72;68.95;96002.00;4972804;28;20192;-61
2021/04/08 07:39:58;;;;;;;9.20;6.13;;;;;;;5.88;66.64;96008.03;4973006;28;20203;-61
2021/04/08 07:42:27;;;;;;;13.43;6.57;;;;;;;5.78;66.31;96003.56;4972653;28;20733;-62
2021/04/08 07:44:56;;;;;;;12.47;7.03;;;;;;;5.96;67.71;96010.94;4972756;28;20238;-61
2021/04/08 07:47:26;;;;;;;9.80;6.37;;;;;;;5.90;65.58;96011.94;4972657;28;20653;-60
2021/04/08 07:49:55;;;;;;;6.60;5.43;;;;;;;6.07;65.34;96014.34;4972956;28;20631;-61
2021/04/08 07:52:29;;;;;;;8.37;5.83;;;;;;;6.51;66.82;96012.16;4972521;28;20283;-60
2021/04/08 07:54:59;;;;;;;20.47;10.67;;;;;;;6.56;63.49;96024.31;4972596;28;20738;-61
2021/04/08 07:57:26;;;;;;;10.27;5.90;;;;;;;6.90;60.77;96021.03;4971605;28;20222;-61
2021/04/08 07:59:53;;;;;;;9.07;5.83;;;;;;;7.19;62.20;96018.72;4972374;28;20208;-59
2021/04/08 08:02:24;;;;;;;11.93;6.60;;;;;;;7.48;60.79;96018.97;4972779;28;20184;-61
2021/04/08 08:05:26;;;;;;;9.17;4.87;;;;;;;7.77;55.74;96016.63;4972751;28;20203;-60
2021/04/08 08:07:54;;;;;;;9.27;5.00;;;;;;;7.71;52.25;96022.81;4972433;28;20198;-60
2021/04/08 08:10:26;;;;;;;64.57;31.43;;;;;;;7.92;51.34;96015.81;4971411;28;20544;-60
2021/04/08 08:12:54;;;;;;;10.03;5.57;;;;;;;8.07;54.25;96020.94;4972143;28;20979;-60
2021/04/08 08:15:26;;;;;;;6.07;4.47;;;;;;;8.26;51.32;96023.72;4972003;28;20315;-60
2021/04/08 08:17:55;;;;;;;5.20;4.07;;;;;;;7.65;50.51;96022.06;4972251;28;20231;-60
2021/04/08 08:20:23;;;;;;;11.77;4.57;;;;;;;7.87;52.75;96021.00;4972073;28;20203;-61
2021/04/08 08:22:50;;;;;;;8.93;5.00;;;;;;;7.93;50.44;96035.44;4971740;28;20267;-60
2021/04/08 08:25:26;;;;;;;8.93;5.03;;;;;;;7.89;52.30;96030.03;4971859;28;20200;-60
2021/04/08 08:27:54;;;;;;;8.33;4.63;;;;;;;7.54;51.35;96028.28;4971890;28;20658;-60
2021/04/08 08:30:23;;;;;;;7.97;5.27;;;;;;;7.58;52.73;96026.72;4971733;28;20675;-60
2021/04/08 08:33:14;;;;;;;10.10;6.23;;;;;;;7.60;54.84;96027.22;4972027;28;20282;-59
2021/04/08 08:35:41;;;;;;;9.40;5.07;;;;;;;7.42;53.60;96027.00;4971931;28;20614;-60
2021/04/08 08:38:12;;;;;;;7.67;5.37;;;;;;;7.18;53.04;96030.09;4971995;28;20231;-60
2021/04/08 08:40:41;;;;;;;9.60;5.33;;;;;;;6.87;53.40;96031.09;4971893;28;20202;-60
2021/04/08 08:43:09;;;;;;;8.03;5.73;;;;;;;6.78;57.33;96035.97;4971669;28;20196;-59
2021/04/08 08:45:37;;;;;;;10.40;6.63;;;;;;;7.14;58.66;96033.44;4971427;28;20588;-59
2021/04/08 08:48:10;;;;;;;15.20;8.73;;;;;;;7.38;58.36;96028.53;4971743;28;20336;-59
2021/04/08 08:50:38;;;;;;;9.63;6.23;;;;;;;7.38;56.03;96031.13;4971553;28;20282;-60
2021/04/08 08:53:08;;;;;;;9.60;5.87;;;;;;;6.91;56.06;96030.34;4971754;28;20196;-61
2021/04/08 08:55:35;;;;;;;8.93;5.63;;;;;;;6.93;59.71;96023.09;4971498;28;20327;-60
2021/04/08 08:58:05;;;;;;;6.03;4.63;;;;;;;6.68;55.77;96035.16;4971425;28;20261;-60
2021/04/08 09:00:32;;;;;;;8.13;4.70;;;;;;;6.82;56.10;96031.84;4971575;28;20278;-61
2021/04/08 09:03:00;;;;;;;9.87;5.13;;;;;;;6.53;53.98;96035.91;4971346;28;20210;-60
2021/04/08 09:05:29;;;;;;;7.27;5.00;;;;;;;6.54;53.07;96032.31;4971375;28;20203;-60
2021/04/08 09:08:00;;;;;;;9.90;4.27;;;;;;;6.69;54.37;96027.19;4971029;28;20202;-60
2021/04/08 09:10:32;;;;;;;6.83;4.53;;;;;;;6.43;53.48;96028.91;4971279;28;20250;-62
2021/04/08 09:12:59;;;;;;;9.87;4.83;;;;;;;6.44;52.05;96032.28;4971184;28;20561;-61
2021/04/08 09:15:28;;;;;;;8.13;4.33;;;;;;;6.48;52.65;96036.66;4971384;28;20242;-60
2021/04/08 09:17:59;;;;;;;10.90;3.93;;;;;;;6.63;47.06;96030.78;4971093;28;20192;-61
2021/04/08 09:20:28;;;;;;;5.40;3.10;;;;;;;6.98;44.12;96024.13;4971178;28;20193;-64
2021/04/08 09:22:57;;;;;;;5.23;2.90;;;;;;;7.47;41.11;96027.00;4970859;28;20610;-63
2021/04/08 09:25:29;;;;;;;6.63;4.60;;;;;;;7.81;39.58;96024.63;4971196;28;20234;-61
2021/04/08 09:27:57;;;;;;;4.50;2.87;;;;;;;8.13;38.28;96025.03;4971070;28;20203;-61
2021/04/08 09:30:48;;;;;;;9.60;3.53;;;;;;;8.18;37.12;96018.03;4971078;28;20196;-60
2021/04/08 09:33:15;;;;;;;6.33;3.07;;;;;;;7.94;37.62;96017.06;4971123;28;20278;-61
2021/04/08 09:35:43;;;;;;;25.33;4.67;;;;;;;7.63;37.22;96018.94;4970961;28;20232;-60
2021/04/08 09:38:19;;;;;;;8.30;3.70;;;;;;;7.73;36.91;96020.72;4971010;28;20287;-60
2021/04/08 09:40:53;;;;;;;4.20;2.53;;;;;;;8.21;34.61;96022.69;4971208;28;20663;-61
2021/04/08 09:43:24;;;;;;;73.93;25.23;;;;;;;8.77;37.00;96021.66;4970842;28;20232;-61
2021/04/08 09:46:05;;;;;;;3.40;2.27;;;;;;;8.24;33.37;96021.38;4970886;28;20227;-61
2021/04/08 09:48:52;;;;;;;4.47;1.93;;;;;;;8.16;33.31;96014.16;4970784;28;20290;-60
2021/04/08 09:51:44;;;;;;;3.07;2.07;;;;;;;8.22;33.24;96020.84;4971076;28;20203;-60
2021/04/08 09:54:13;;;;;;;53.43;15.83;;;;;;;8.68;34.43;96021.47;4968692;28;20663;-58
2021/04/08 09:56:46;;;;;;;3.93;2.20;;;;;;;8.44;32.66;96018.72;4970929;28;20611;-60
2021/04/08 09:59:14;;;;;;;3.13;1.80;;;;;;;8.57;31.99;96022.53;4971047;28;20204;-60
2021/04/08 10:01:42;;;;;;;9.40;4.70;;;;;;;8.45;35.89;96012.53;4970751;28;20689;-61
2021/04/08 10:04:14;;;;;;;41.13;15.23;;;;;;;8.37;37.07;96013.06;4970772;28;20251;-60
2021/04/08 10:06:41;;;;;;;3.17;2.00;;;;;;;7.98;35.55;96025.84;4970680;28;20214;-60
2021/04/08 10:09:10;;;;;;;25.83;10.27;;;;;;;7.78;35.86;96018.13;4970703;28;20591;-60
2021/04/08 10:11:37;;;;;;;4.40;2.10;;;;;;;7.77;35.44;96027.72;4970980;28;20214;-60
2021/04/08 10:14:20;;;;;;;3.70;2.13;;;;;;;7.20;35.50;96029.84;4971355;28;20203;-60
2021/04/08 10:17:01;;;;;;;3.40;2.20;;;;;;;7.47;39.26;96022.56;4969742;28;20710;-60
2021/04/08 10:19:33;;;;;;;10.00;3.37;;;;;;;7.77;39.14;96032.88;4971259;28;20207;-61
2021/04/08 10:22:01;;;;;;;3.73;2.20;;;;;;;8.19;37.97;96026.56;4974005;28;20254;-61
2021/04/08 10:24:35;;;;;;;3.63;2.23;;;;;;;8.28;37.15;96032.75;4974087;28;20236;-61
2021/04/08 10:27:10;;;;;;;5.13;2.30;;;;;;;8.84;35.99;96030.69;4974133;28;20195;-61
2021/04/08 10:29:38;;;;;;;3.97;2.83;;;;;;;9.01;39.37;96038.13;4974690;28;20203;-60
2021/04/08 10:32:07;;;;;;;8.20;3.50;;;;;;;8.98;39.73;96036.81;4973992;28;20198;-60
2021/04/08 10:34:35;;;;;;;14.27;4.17;;;;;;;9.36;41.52;96039.69;4973840;28;20203;-59
2021/04/08 10:37:03;;;;;;;6.90;3.07;;;;;;;9.49;38.11;96041.66;4973884;28;20280;-60
2021/04/08 10:39:32;;;;;;;7.07;4.47;;;;;;;9.11;43.38;96045.06;4974021;28;20571;-61
2021/04/08 10:42:01;;;;;;;5.50;3.17;;;;;;;8.63;38.70;96039.63;4973944;28;20199;-60
2021/04/08 10:44:30;;;;;;;6.67;3.33;;;;;;;7.88;42.79;96048.38;4973640;28;20202;-61
2021/04/08 10:47:01;;;;;;;9.30;4.23;;;;;;;8.02;35.15;96033.88;4973422;28;20687;-60
2021/04/08 10:49:31;;;;;;;4.60;2.40;;;;;;;7.86;31.86;96040.13;4973419;28;20357;-60
2021/04/08 10:52:04;;;;;;;3.37;1.77;;;;;;;7.91;31.66;96038.31;4973557;28;20203;-59
2021/04/08 10:54:31;;;;;;;11.63;1.97;;;;;;;8.02;32.70;96026.88;4973420;28;20196;-60
2021/04/08 10:56:59;;;;;;;5.47;2.83;;;;;;;8.26;33.59;96039.25;4973656;28;20679;-61
2021/04/08 10:59:27;;;;;;;21.87;11.43;;;;;;;8.66;32.48;96040.91;4973848;28;20202;-61
2021/04/08 11:01:55;;;;;;;14.07;6.47;;;;;;;8.64;32.93;96036.00;4973845;28;20209;-61
2021/04/08 11:04:23;;;;;;;22.80;10.93;;;;;;;8.58;32.54;96032.66;4973405;28;20235;-62
2021/04/08 11:06:52;;;;;;;2.70;1.70;;;;;;;8.64;26.93;96030.81;4973436;28;20192;-61
2021/04/08 11:09:23;;;;;;;4.37;2.60;;;;;;;8.84;29.33;96032.50;4973208;28;20258;-60
2021/04/08 11:11:50;;;;;;;8.57;3.83;;;;;;;8.86;32.53;96040.81;4973322;28;20282;-61
2021/04/08 11:14:21;;;;;;;7.70;3.37;;;;;;;8.82;32.21;96042.38;4973251;28;20199;-61
2021/04/08 11:16:50;;;;;;;7.10;4.20;;;;;;;9.08;31.04;96035.97;4973252;28;20239;-60
2021/04/08 11:19:17;;;;;;;4.60;2.77;;;;;;;9.10;29.06;96033.91;4973105;28;20735;-63
2021/04/08 11:21:45;;;;;;;2.77;1.97;;;;;;;9.01;27.23;96030.34;4973137;28;20200;-60
2021/04/08 11:24:14;;;;;;;9.97;2.70;;;;;;;9.08;28.84;96025.63;4973082;28;20662;-60
2021/04/08 11:26:49;;;;;;;29.73;16.10;;;;;;;9.24;27.47;96023.69;4973103;28;20234;-60
2021/04/08 11:29:22;;;;;;;12.10;5.33;;;;;;;9.31;28.98;96024.94;4973234;28;20203;-61
2021/04/08 11:32:00;;;;;;;11.23;7.10;;;;;;;9.09;29.75;96037.53;4972913;28;20223;-60
2021/04/08 11:34:28;;;;;;;10.53;6.10;;;;;;;8.66;29.07;96033.16;4972804;28;20224;-61
2021/04/08 11:36:55;;;;;;;12.57;6.77;;;;;;;8.63;30.34;96032.63;4972837;28;20235;-59
2021/04/08 11:39:24;;;;;;;8.83;4.20;;;;;;;8.50;28.89;96037.63;4972767;28;20199;-61
2021/04/08 11:41:50;;;;;;;2.87;1.40;;;;;;;8.40;29.85;96048.81;4972852;28;20208;-60
2021/04/08 11:44:26;;;;;;;2.97;1.47;;;;;;;8.22;28.80;96044.94;4972663;28;20235;-60